Time;durP1;ratioP1;P1;durP2;ratioP2;P2;SDS_P1;SDS_P2;PMS_P1;PMS_P2;Temp;Humidity;BMP_temperature;BMP_pressure;BME280_temperature;BME280_humidity;BME280_pressure;Samples;Min_cycle;Max_cycle;Signal;HPM_P1;HPM_P2
2022/01/14 00:00:06;;;;;;;61.35;20.25;;;;;;;;;;4995722;28;93743;-70
2022/01/14 00:02:33;;;;;;;71.47;22.45;;;;;;;;;;4993891;28;92353;-70
2022/01/14 00:04:59;;;;;;;66.35;21.15;;;;;;;;;;4997166;28;93478;-70
2022/01/14 00:07:26;;;;;;;72.85;21.40;;;;;;;;;;4996448;28;93574;-71
2022/01/14 00:09:54;;;;;;;69.25;20.80;;;;;;;;;;5000661;28;92332;-70
2022/01/14 00:12:26;;;;;;;58.85;20.88;;;;;;;;;;4994247;28;94740;-70
2022/01/14 00:15:23;;;;;;;77.63;22.02;;;;;;;;;;4996065;28;93176;-70
2022/01/14 00:17:48;;;;;;;54.20;20.23;;;;;;;;;;4996283;28;92410;-70
2022/01/14 00:20:14;;;;;;;69.53;21.02;;;;;;;;;;4998131;28;93874;-70
2022/01/14 00:22:41;;;;;;;67.45;22.33;;;;;;;;;;4996308;28;92302;-71
2022/01/14 00:33:09;;;;;;;70.35;20.65;;;;;;;;;;4999143;28;95268;-70
2022/01/14 00:35:38;;;;;;;56.67;20.75;;;;;;;;;;4995706;28;93444;-71
2022/01/14 00:38:04;;;;;;;66.32;21.48;;;;;;;;;;4995339;28;94591;-70
2022/01/14 00:40:30;;;;;;;56.95;21.08;;;;;;;;;;4996993;28;96296;-70
2022/01/14 00:42:57;;;;;;;56.08;20.75;;;;;;;;;;4998964;28;93756;-71
2022/01/14 00:45:23;;;;;;;56.90;21.33;;;;;;;;;;4996956;28;93510;-70
2022/01/14 00:47:50;;;;;;;61.53;21.45;;;;;;;;;;4996782;28;93894;-70
2022/01/14 00:50:17;;;;;;;56.22;20.45;;;;;;;;;;4996519;28;92272;-70
2022/01/14 00:52:43;;;;;;;53.95;20.48;;;;;;;;;;4996963;28;93094;-70
2022/01/14 00:55:12;;;;;;;58.08;21.33;;;;;;;;;;4996927;28;93441;-70
2022/01/14 01:00:26;;;;;;;60.88;21.42;;;;;;;;;;4996925;28;93577;-70
2022/01/14 01:02:53;;;;;;;50.50;21.48;;;;;;;;;;4994517;28;96442;-70
2022/01/14 01:05:21;;;;;;;58.53;21.63;;;;;;;;;;4999887;28;92142;-70
2022/01/14 01:07:57;;;;;;;51.53;20.90;;;;;;;;;;4996440;28;93109;-70
2022/01/14 01:10:24;;;;;;;56.80;22.30;;;;;;;;;;4996623;28;92361;-71
2022/01/14 01:12:58;;;;;;;52.65;20.90;;;;;;;;;;4995558;28;93083;-70
2022/01/14 01:15:26;;;;;;;58.47;22.30;;;;;;;;;;4995971;28;93523;-70
2022/01/14 01:17:52;;;;;;;58.40;21.63;;;;;;;;;;4996583;28;92325;-70
2022/01/14 01:20:19;;;;;;;60.05;22.45;;;;;;;;;;4996710;28;93517;-71
2022/01/14 01:22:48;;;;;;;68.80;23.02;;;;;;;;;;4996227;28;93089;-71
2022/01/14 01:25:36;;;;;;;57.03;21.90;;;;;;;;;;4980310;28;92267;-71
2022/01/14 01:28:02;;;;;;;63.05;23.05;;;;;;;;;;4997783;28;94701;-71
2022/01/14 01:30:50;;;;;;;69.63;22.63;;;;;;;;;;4996275;28;92572;-72
2022/01/14 01:33:15;;;;;;;64.18;23.55;;;;;;;;;;4996020;28;95535;-71
2022/01/14 01:35:43;;;;;;;64.32;23.33;;;;;;;;;;4996124;28;93326;-71
2022/01/14 01:38:15;;;;;;;70.05;23.63;;;;;;;;;;4995619;28;92227;-71
2022/01/14 01:40:43;;;;;;;77.47;23.67;;;;;;;;;;4996115;28;92878;-72
2022/01/14 01:43:11;;;;;;;70.10;23.10;;;;;;;;;;4994995;28;93761;-71
2022/01/14 01:45:38;;;;;;;72.80;23.65;;;;;;;;;;4996700;28;91462;-71
2022/01/14 01:48:04;;;;;;;67.90;22.63;;;;;;;;;;4998962;28;92784;-71
2022/01/14 01:50:32;;;;;;;71.18;24.80;;;;;;;;;;4996065;28;92356;-72
2022/01/14 01:52:58;;;;;;;78.25;24.92;;;;;;;;;;4995325;28;94727;-69
2022/01/14 01:55:25;;;;;;;74.35;23.10;;;;;;;;;;4999087;28;93396;-71
2022/01/14 01:57:52;;;;;;;67.80;22.50;;;;;;;;;;4999666;28;92371;-71
2022/01/14 02:00:20;;;;;;;67.80;23.38;;;;;;;;;;4999538;28;92888;-71
2022/01/14 02:02:48;;;;;;;68.65;23.05;;;;;;;;;;4999219;28;93743;-70
2022/01/14 02:05:16;;;;;;;80.45;22.30;;;;;;;;;;4998957;28;92332;-71
2022/01/14 02:07:42;;;;;;;70.60;24.00;;;;;;;;;;4999277;28;93479;-72
2022/01/14 02:10:10;;;;;;;74.35;23.50;;;;;;;;;;5002917;28;93140;-71
2022/01/14 02:12:45;;;;;;;72.85;23.35;;;;;;;;;;4999190;28;92688;-71
2022/01/14 02:15:25;;;;;;;83.63;22.80;;;;;;;;;;4999058;28;93670;-71
2022/01/14 02:18:23;;;;;;;73.18;22.73;;;;;;;;;;4996537;28;94783;-71
2022/01/14 02:23:24;;;;;;;61.78;22.10;;;;;;;;;;4999432;28;92801;-71
2022/01/14 02:25:50;;;;;;;74.40;22.05;;;;;;;;;;4999174;28;92339;-71
2022/01/14 02:28:20;;;;;;;68.45;22.25;;;;;;;;;;4998676;28;93456;-71
2022/01/14 02:30:47;;;;;;;72.97;21.75;;;;;;;;;;4998920;28;93744;-71
2022/01/14 02:33:14;;;;;;;56.10;22.08;;;;;;;;;;5002159;28;92140;-71
2022/01/14 02:35:42;;;;;;;60.38;20.50;;;;;;;;;;4999329;28;92883;-70
2022/01/14 02:38:09;;;;;;;64.80;22.52;;;;;;;;;;4998893;28;92366;-71
2022/01/14 02:40:36;;;;;;;70.95;21.35;;;;;;;;;;4998530;28;93497;-71
2022/01/14 02:43:05;;;;;;;60.55;21.00;;;;;;;;;;4996839;28;95863;-72
2022/01/14 02:45:33;;;;;;;71.03;21.35;;;;;;;;;;4998927;28;93211;-71
2022/01/14 02:48:01;;;;;;;60.25;22.10;;;;;;;;;;4998823;28;92699;-71
2022/01/14 02:50:36;;;;;;;60.13;22.10;;;;;;;;;;4998649;28;93629;-71
2022/01/14 02:53:12;;;;;;;53.60;21.58;;;;;;;;;;4998695;28;92160;-72
2022/01/14 02:55:43;;;;;;;63.35;22.63;;;;;;;;;;5001435;28;93758;-72
2022/01/14 02:58:09;;;;;;;60.88;21.80;;;;;;;;;;4998680;28;92449;-71
2022/01/14 03:00:36;;;;;;;59.60;20.20;;;;;;;;;;4999112;28;93573;-71
2022/01/14 03:03:04;;;;;;;64.97;21.05;;;;;;;;;;4998361;28;93373;-71
2022/01/14 03:05:31;;;;;;;70.75;20.67;;;;;;;;;;4997320;28;92331;-71
2022/01/14 03:07:57;;;;;;;50.38;20.63;;;;;;;;;;4996479;28;94719;-71
2022/01/14 03:10:24;;;;;;;65.65;20.67;;;;;;;;;;4998419;28;93265;-71
2022/01/14 03:12:50;;;;;;;52.83;20.65;;;;;;;;;;4996561;28;92324;-71
2022/01/14 03:15:17;;;;;;;55.80;20.27;;;;;;;;;;5013826;28;94474;-71
2022/01/14 03:17:43;;;;;;;48.05;20.60;;;;;;;;;;5001340;28;93678;-71
2022/01/14 03:20:21;;;;;;;48.15;20.33;;;;;;;;;;4998102;28;93493;-72
2022/01/14 03:23:02;;;;;;;54.67;19.80;;;;;;;;;;4998053;28;93709;-72
2022/01/14 03:25:47;;;;;;;51.33;20.40;;;;;;;;;;4997444;28;91925;-71
2022/01/14 03:28:15;;;;;;;59.55;20.27;;;;;;;;;;4998134;28;92896;-71
2022/01/14 03:30:41;;;;;;;68.15;22.13;;;;;;;;;;4997847;28;92351;-72
2022/01/14 03:33:08;;;;;;;59.55;20.27;;;;;;;;;;4995181;28;94853;-71
2022/01/14 03:35:35;;;;;;;46.22;20.20;;;;;;;;;;4996579;28;99489;-71
2022/01/14 03:38:01;;;;;;;53.17;20.10;;;;;;;;;;4997507;28;93674;-70
2022/01/14 03:40:28;;;;;;;55.67;21.10;;;;;;;;;;5000795;28;92386;-71
2022/01/14 03:42:54;;;;;;;53.60;19.45;;;;;;;;;;4997658;28;93580;-71
2022/01/14 03:45:20;;;;;;;48.28;20.02;;;;;;;;;;4997655;28;92296;-71
2022/01/14 03:47:47;;;;;;;54.38;21.17;;;;;;;;;;4997821;28;93395;-70
2022/01/14 03:50:13;;;;;;;47.53;19.70;;;;;;;;;;4998299;28;92831;-71
2022/01/14 03:52:39;;;;;;;68.97;19.73;;;;;;;;;;4997678;28;92314;-71
2022/01/14 03:55:06;;;;;;;73.63;20.98;;;;;;;;;;4997682;28;94101;-71
2022/01/14 03:57:44;;;;;;;40.60;18.83;;;;;;;;;;4995718;28;96352;-70
2022/01/14 04:00:11;;;;;;;71.63;20.80;;;;;;;;;;5000603;28;92362;-71
2022/01/14 04:02:42;;;;;;;66.20;22.02;;;;;;;;;;4995131;28;93236;-71
2022/01/14 04:05:08;;;;;;;78.20;20.73;;;;;;;;;;4996459;28;92384;-71
2022/01/14 04:07:35;;;;;;;63.25;21.25;;;;;;;;;;4995974;28;96893;-70
2022/01/14 04:10:02;;;;;;;57.38;21.75;;;;;;;;;;4997391;28;93434;-70
2022/01/14 04:12:44;;;;;;;66.18;21.63;;;;;;;;;;4997355;28;92425;-71
2022/01/14 04:17:58;;;;;;;56.42;21.25;;;;;;;;;;4996781;28;93717;-71
2022/01/14 04:20:24;;;;;;;54.65;21.52;;;;;;;;;;4997198;28;92247;-71
2022/01/14 04:22:51;;;;;;;67.53;23.17;;;;;;;;;;4998695;28;94574;-71
2022/01/14 04:25:17;;;;;;;61.47;20.95;;;;;;;;;;4997481;28;92358;-71
2022/01/14 04:27:44;;;;;;;58.22;22.60;;;;;;;;;;4997226;28;93425;-71
2022/01/14 04:30:11;;;;;;;59.53;22.48;;;;;;;;;;4996903;28;93629;-71
2022/01/14 04:32:37;;;;;;;73.15;22.73;;;;;;;;;;4997042;28;92386;-71
2022/01/14 04:35:04;;;;;;;59.28;22.23;;;;;;;;;;4997149;28;93000;-71
2022/01/14 04:37:30;;;;;;;57.35;22.05;;;;;;;;;;4996553;28;93401;-71
2022/01/14 04:39:56;;;;;;;59.40;22.98;;;;;;;;;;4997500;28;92373;-71
2022/01/14 04:42:24;;;;;;;50.50;21.48;;;;;;;;;;4995961;28;94313;-71
2022/01/14 04:44:54;;;;;;;69.10;23.42;;;;;;;;;;5004316;28;93627;-71
2022/01/14 04:47:32;;;;;;;66.15;22.00;;;;;;;;;;5035425;28;94736;-71
2022/01/14 04:49:59;;;;;;;62.20;22.92;;;;;;;;;;5036826;28;93789;-70
2022/01/14 04:52:30;;;;;;;57.30;22.13;;;;;;;;;;5036917;28;92234;-71
2022/01/14 04:54:56;;;;;;;80.33;22.20;;;;;;;;;;5036737;27;93253;-71
2022/01/14 04:57:22;;;;;;;66.57;22.40;;;;;;;;;;5035947;28;93811;-70
2022/01/14 04:59:49;;;;;;;64.57;23.45;;;;;;;;;;5036886;28;92304;-71
2022/01/14 05:02:16;;;;;;;73.65;22.25;;;;;;;;;;5036701;28;93624;-70
2022/01/14 05:04:44;;;;;;;57.22;22.60;;;;;;;;;;5036773;27;91876;-71
2022/01/14 05:07:15;;;;;;;76.57;21.52;;;;;;;;;;5039708;28;92216;-71
2022/01/14 05:09:46;;;;;;;64.85;21.85;;;;;;;;;;5036934;28;92905;-71
2022/01/14 05:12:12;;;;;;;71.07;21.13;;;;;;;;;;5035147;28;94668;-70
2022/01/14 05:14:39;;;;;;;69.78;21.75;;;;;;;;;;5036623;28;96639;-71
2022/01/14 05:17:05;;;;;;;57.38;22.17;;;;;;;;;;5036433;28;93523;-71
2022/01/14 05:19:32;;;;;;;73.20;22.05;;;;;;;;;;5037796;27;92423;-70
2022/01/14 05:21:59;;;;;;;72.93;22.20;;;;;;;;;;5035446;28;93610;-71
2022/01/14 05:24:25;;;;;;;77.20;22.02;;;;;;;;;;5036432;28;93594;-70
2022/01/14 05:26:52;;;;;;;49.92;20.38;;;;;;;;;;5036494;28;92349;-70
2022/01/14 05:29:18;;;;;;;78.07;22.50;;;;;;;;;;5039280;28;93959;-70
2022/01/14 05:31:45;;;;;;;74.18;21.58;;;;;;;;;;5036106;28;92482;-71
2022/01/14 05:34:11;;;;;;;69.32;22.88;;;;;;;;;;5036243;28;94497;-70
2022/01/14 05:36:38;;;;;;;59.92;22.67;;;;;;;;;;5034576;28;95112;-70
2022/01/14 05:39:04;;;;;;;49.30;21.60;;;;;;;;;;5036441;28;92250;-70
2022/01/14 05:41:31;;;;;;;60.00;22.55;;;;;;;;;;5036267;28;93643;-70
2022/01/14 05:43:57;;;;;;;56.55;21.33;;;;;;;;;;5036042;28;93398;-71
2022/01/14 05:46:24;;;;;;;53.47;21.48;;;;;;;;;;5035859;28;92266;-71
2022/01/14 05:48:50;;;;;;;48.40;20.90;;;;;;;;;;5039462;27;92897;-71
2022/01/14 05:51:17;;;;;;;53.80;19.95;;;;;;;;;;5036074;28;92316;-71
2022/01/14 05:53:43;;;;;;;63.22;22.48;;;;;;;;;;5036618;28;93690;-71
2022/01/14 05:56:09;;;;;;;65.25;21.63;;;;;;;;;;5035889;28;93532;-71
2022/01/14 05:58:36;;;;;;;46.08;20.40;;;;;;;;;;5035945;28;92214;-71
2022/01/14 06:01:02;;;;;;;73.05;21.90;;;;;;;;;;5034056;28;97037;-71
2022/01/14 06:03:28;;;;;;;63.47;22.02;;;;;;;;;;5036081;27;93795;-71
2022/01/14 06:05:55;;;;;;;59.45;21.52;;;;;;;;;;5034999;28;92494;-71
2022/01/14 06:08:21;;;;;;;82.00;22.63;;;;;;;;;;5035883;28;93986;-71
2022/01/14 06:10:48;;;;;;;79.80;23.10;;;;;;;;;;5039185;28;93793;-71
2022/01/14 06:13:14;;;;;;;59.72;22.88;;;;;;;;;;5035820;28;93404;-70
2022/01/14 06:15:40;;;;;;;77.55;23.58;;;;;;;;;;5035305;28;93662;-71
2022/01/14 06:18:07;;;;;;;56.75;23.35;;;;;;;;;;5036105;28;91562;-71
2022/01/14 06:20:33;;;;;;;74.97;23.25;;;;;;;;;;5035415;28;92808;-70
2022/01/14 06:22:59;;;;;;;60.50;21.80;;;;;;;;;;5035568;28;93811;-71
2022/01/14 06:25:26;;;;;;;59.22;22.73;;;;;;;;;;5034215;28;94770;-71
2022/01/14 06:27:52;;;;;;;59.50;22.90;;;;;;;;;;5035649;28;95958;-71
2022/01/14 06:30:20;;;;;;;52.95;22.65;;;;;;;;;;5035298;27;93602;-71
2022/01/14 06:32:50;;;;;;;68.38;23.40;;;;;;;;;;5038679;28;92262;-71
2022/01/14 06:35:16;;;;;;;66.03;21.73;;;;;;;;;;5035435;28;93490;-70
2022/01/14 06:37:43;;;;;;;62.60;22.98;;;;;;;;;;5035506;28;92478;-71
2022/01/14 06:40:10;;;;;;;56.47;22.85;;;;;;;;;;5036758;28;93571;-70
2022/01/14 06:42:41;;;;;;;55.72;21.73;;;;;;;;;;5039432;27;92845;-71
2022/01/14 06:45:09;;;;;;;70.07;23.08;;;;;;;;;;5037800;28;92436;-71
2022/01/14 06:47:35;;;;;;;52.20;22.15;;;;;;;;;;5039031;27;93240;-71
2022/01/14 06:50:02;;;;;;;47.30;21.13;;;;;;;;;;5036971;28;95859;-70
2022/01/14 06:52:28;;;;;;;53.42;22.55;;;;;;;;;;5038969;28;92268;-71
2022/01/14 06:54:55;;;;;;;55.25;22.27;;;;;;;;;;5041647;28;93569;-71
2022/01/14 06:57:24;;;;;;;53.92;21.98;;;;;;;;;;5038037;28;92277;-71
2022/01/14 06:59:50;;;;;;;48.40;21.67;;;;;;;;;;5037791;28;93382;-72
2022/01/14 07:02:17;;;;;;;55.40;21.88;;;;;;;;;;5038478;28;92707;-71
2022/01/14 07:04:43;;;;;;;42.05;20.90;;;;;;;;;;5038919;28;92214;-71
2022/01/14 07:07:09;;;;;;;64.13;21.48;;;;;;;;;;5038874;28;92991;-71
2022/01/14 07:09:36;;;;;;;46.05;21.33;;;;;;;;;;5038517;28;93548;-71
2022/01/14 07:12:04;;;;;;;43.78;21.00;;;;;;;;;;5038252;28;92223;-71
2022/01/14 07:14:30;;;;;;;49.13;20.63;;;;;;;;;;5036915;28;94775;-72
2022/01/14 07:16:57;;;;;;;47.90;21.08;;;;;;;;;;5041170;28;92703;-71
2022/01/14 07:19:23;;;;;;;45.50;21.63;;;;;;;;;;5037990;28;93364;-71
2022/01/14 07:21:50;;;;;;;42.85;19.58;;;;;;;;;;5038366;28;93860;-71
2022/01/14 07:24:16;;;;;;;42.10;19.73;;;;;;;;;;5038138;28;92226;-72
2022/01/14 07:26:43;;;;;;;45.35;19.50;;;;;;;;;;5037784;28;93805;-72
2022/01/14 07:29:09;;;;;;;37.83;19.17;;;;;;;;;;5037963;28;93153;-71
2022/01/14 07:31:35;;;;;;;31.17;19.02;;;;;;;;;;5038600;28;91548;-71
2022/01/14 07:34:02;;;;;;;41.80;20.33;;;;;;;;;;5038188;28;93029;-71
2022/01/14 07:36:34;;;;;;;36.00;18.73;;;;;;;;;;5037932;28;93542;-73
2022/01/14 07:39:00;;;;;;;37.75;17.75;;;;;;;;;;5039083;28;94523;-71
2022/01/14 07:41:27;;;;;;;38.33;20.10;;;;;;;;;;5038028;28;93132;-71
2022/01/14 07:43:58;;;;;;;36.22;18.63;;;;;;;;;;5037907;28;92334;-71
2022/01/14 07:46:25;;;;;;;35.30;19.80;;;;;;;;;;5038015;27;93303;-70
2022/01/14 07:48:52;;;;;;;39.33;18.40;;;;;;;;;;5038047;28;93070;-72
2022/01/14 07:51:28;;;;;;;39.67;19.30;;;;;;;;;;5037449;27;92177;-71
2022/01/14 07:53:54;;;;;;;40.00;18.52;;;;;;;;;;5037822;28;92868;-71
2022/01/14 07:56:21;;;;;;;31.92;18.30;;;;;;;;;;5037943;28;92834;-71
2022/01/14 07:58:47;;;;;;;37.65;17.95;;;;;;;;;;5039791;28;92380;-72
2022/01/14 08:01:14;;;;;;;37.03;18.27;;;;;;;;;;5037462;28;94111;-71
2022/01/14 08:03:41;;;;;;;35.10;17.30;;;;;;;;;;5035803;28;96407;-71
2022/01/14 08:06:10;;;;;;;35.13;18.52;;;;;;;;;;5036945;28;95772;-72
2022/01/14 08:08:38;;;;;;;34.83;18.25;;;;;;;;;;5037503;28;93093;-71
2022/01/14 08:11:05;;;;;;;32.47;18.48;;;;;;;;;;5037436;28;92313;-72
2022/01/14 08:13:32;;;;;;;37.42;19.17;;;;;;;;;;5037500;28;93443;-71
2022/01/14 08:15:59;;;;;;;41.33;18.95;;;;;;;;;;5037283;28;94101;-72
2022/01/14 08:18:26;;;;;;;34.92;19.50;;;;;;;;;;5037306;28;92234;-72
2022/01/14 08:20:53;;;;;;;31.73;17.67;;;;;;;;;;5040197;28;93213;-73
2022/01/14 08:23:19;;;;;;;38.22;17.65;;;;;;;;;;5037369;28;92281;-72
2022/01/14 08:25:45;;;;;;;29.80;17.30;;;;;;;;;;5036409;28;92503;-72
2022/01/14 08:28:12;;;;;;;32.17;18.13;;;;;;;;;;5035403;28;95812;-71
2022/01/14 08:30:38;;;;;;;34.30;17.48;;;;;;;;;;5037080;28;92456;-72
2022/01/14 08:33:04;;;;;;;29.15;17.35;;;;;;;;;;5037132;28;93457;-70
2022/01/14 08:35:31;;;;;;;30.85;17.10;;;;;;;;;;5035544;28;96199;-72
2022/01/14 08:37:57;;;;;;;26.17;17.05;;;;;;;;;;5036285;28;92419;-72
2022/01/14 08:40:24;;;;;;;31.25;17.50;;;;;;;;;;5037121;28;93467;-71
2022/01/14 08:42:54;;;;;;;32.55;18.38;;;;;;;;;;5040026;28;94090;-71
2022/01/14 08:45:21;;;;;;;36.22;17.95;;;;;;;;;;5037152;28;92803;-71
2022/01/14 08:47:52;;;;;;;26.88;16.75;;;;;;;;;;5036711;27;92743;-72
2022/01/14 08:50:21;;;;;;;27.95;17.48;;;;;;;;;;5036830;28;92252;-72
2022/01/14 08:52:48;;;;;;;32.05;17.70;;;;;;;;;;5003615;28;95544;-71
2022/01/14 08:55:16;;;;;;;29.65;18.08;;;;;;;;;;5005011;28;93580;-71
2022/01/14 08:57:43;;;;;;;28.50;17.45;;;;;;;;;;5016594;28;92463;-71
2022/01/14 09:00:09;;;;;;;31.63;18.27;;;;;;;;;;5010095;28;93394;-71
2022/01/14 09:02:36;;;;;;;30.15;18.10;;;;;;;;;;4995057;28;93685;-73
2022/01/14 09:05:03;;;;;;;29.63;18.50;;;;;;;;;;5006595;28;92442;-71
2022/01/14 09:07:30;;;;;;;28.55;17.75;;;;;;;;;;5011330;28;93551;-70
2022/01/14 09:09:56;;;;;;;30.75;17.52;;;;;;;;;;5012775;28;91699;-70
2022/01/14 09:12:23;;;;;;;33.85;18.35;;;;;;;;;;4996308;28;92288;-72
2022/01/14 09:14:49;;;;;;;31.35;17.38;;;;;;;;;;4996370;28;93614;-71
2022/01/14 09:17:19;;;;;;;30.15;17.85;;;;;;;;;;4994511;28;94770;-71
2022/01/14 09:19:46;;;;;;;30.38;18.27;;;;;;;;;;4996115;28;95839;-72
2022/01/14 09:22:16;;;;;;;24.33;16.88;;;;;;;;;;4996120;28;92682;-72
2022/01/14 09:24:48;;;;;;;32.20;18.95;;;;;;;;;;4996507;28;92347;-71
2022/01/14 09:27:15;;;;;;;31.30;18.55;;;;;;;;;;4999525;28;93415;-72
2022/01/14 09:29:42;;;;;;;33.58;18.48;;;;;;;;;;4994435;28;93654;-72
2022/01/14 09:32:09;;;;;;;29.42;18.23;;;;;;;;;;4995946;28;92570;-71
2022/01/14 09:34:57;;;;;;;31.60;19.17;;;;;;;;;;4995374;28;91851;-71
2022/01/14 09:37:24;;;;;;;29.20;18.52;;;;;;;;;;5010532;28;92098;-71
2022/01/14 09:39:50;;;;;;;34.72;19.88;;;;;;;;;;5003474;28;92498;-71
2022/01/14 09:42:16;;;;;;;30.08;19.75;;;;;;;;;;4993990;28;96075;-72
2022/01/14 09:44:44;;;;;;;34.13;19.42;;;;;;;;;;5004147;28;92329;-71
2022/01/14 09:47:15;;;;;;;29.73;19.52;;;;;;;;;;5036132;28;93496;-71
2022/01/14 09:49:42;;;;;;;34.10;19.10;;;;;;;;;;5039137;28;93430;-72
2022/01/14 09:52:10;;;;;;;27.60;18.75;;;;;;;;;;5035911;28;93450;-71
2022/01/14 09:54:37;;;;;;;33.10;18.65;;;;;;;;;;5035443;28;93254;-72
2022/01/14 09:57:03;;;;;;;27.52;18.50;;;;;;;;;;5035836;28;92205;-72
2022/01/14 09:59:30;;;;;;;33.33;19.55;;;;;;;;;;5036439;28;93451;-71
2022/01/14 10:01:57;;;;;;;27.55;18.30;;;;;;;;;;5035865;27;93409;-72
2022/01/14 10:04:23;;;;;;;25.60;18.10;;;;;;;;;;5023680;28;92690;-73
2022/01/14 10:06:51;;;;;;;29.17;18.95;;;;;;;;;;5014174;28;94630;-71
2022/01/14 10:09:21;;;;;;;30.63;18.52;;;;;;;;;;5018561;28;93876;-72
2022/01/14 10:12:07;;;;;;;26.30;18.15;;;;;;;;;;5015704;28;92716;-71
2022/01/14 10:14:34;;;;;;;25.60;18.35;;;;;;;;;;5017162;28;94071;-71
2022/01/14 10:17:02;;;;;;;27.52;18.35;;;;;;;;;;5018968;28;92271;-71
2022/01/14 10:19:42;;;;;;;26.88;18.67;;;;;;;;;;5018646;28;93808;-70
2022/01/14 10:22:42;;;;;;;27.65;19.15;;;;;;;;;;5018936;28;93712;-70
2022/01/14 10:25:12;;;;;;;31.48;21.20;;;;;;;;;;4975014;28;91660;-71
2022/01/14 10:27:49;;;;;;;38.75;22.08;;;;;;;;;;5018915;28;92724;-71
2022/01/14 10:30:20;;;;;;;30.60;21.17;;;;;;;;;;5017953;28;94154;-71
2022/01/14 10:32:56;;;;;;;63.22;43.10;;;;;;;;;;5020232;28;95449;-70
2022/01/14 10:35:23;;;;;;;33.15;21.40;;;;;;;;;;5018770;28;94208;-71
2022/01/14 10:37:50;;;;;;;36.47;21.20;;;;;;;;;;5018848;28;92394;-71
2022/01/14 10:40:18;;;;;;;33.92;19.83;;;;;;;;;;5018913;28;93683;-71
2022/01/14 10:42:45;;;;;;;29.23;18.92;;;;;;;;;;5018316;28;93903;-71
2022/01/14 10:45:22;;;;;;;30.55;19.58;;;;;;;;;;5018551;28;92450;-71
2022/01/14 10:48:03;;;;;;;33.75;21.60;;;;;;;;;;5018615;28;92435;-71
2022/01/14 10:50:41;;;;;;;28.10;20.75;;;;;;;;;;5018974;28;92794;-72
2022/01/14 10:53:38;;;;;;;34.13;20.42;;;;;;;;;;5017818;28;92482;-72
2022/01/14 10:56:05;;;;;;;31.00;20.92;;;;;;;;;;5004276;28;93648;-71
2022/01/14 10:58:42;;;;;;;34.30;20.83;;;;;;;;;;5016622;28;94646;-71
2022/01/14 11:01:14;;;;;;;31.05;21.17;;;;;;;;;;5018357;28;95931;-72
2022/01/14 11:03:44;;;;;;;34.08;22.33;;;;;;;;;;5017710;28;93766;-72
2022/01/14 11:06:19;;;;;;;40.50;23.65;;;;;;;;;;5018445;28;92091;-71
2022/01/14 11:08:46;;;;;;;37.80;22.25;;;;;;;;;;5017065;28;94607;-72
2022/01/14 11:11:14;;;;;;;31.08;20.85;;;;;;;;;;5018096;28;94181;-72
2022/01/14 11:14:01;;;;;;;32.05;21.80;;;;;;;;;;5017470;28;94251;-72
2022/01/14 11:16:28;;;;;;;38.35;22.77;;;;;;;;;;5018549;28;93410;-71
2022/01/14 11:18:58;;;;;;;34.45;21.42;;;;;;;;;;5019300;28;96871;-71
2022/01/14 11:24:13;;;;;;;36.45;23.38;;;;;;;;;;5016161;28;95947;-70
2022/01/14 11:26:40;;;;;;;37.55;22.27;;;;;;;;;;5016788;28;92323;-70
2022/01/14 11:29:13;;;;;;;38.10;24.83;;;;;;;;;;5018107;28;93447;-70
2022/01/14 11:31:42;;;;;;;30.75;22.48;;;;;;;;;;5017573;28;93740;-70
2022/01/14 11:34:09;;;;;;;34.45;21.35;;;;;;;;;;5017876;28;92450;-70
2022/01/14 11:36:58;;;;;;;35.42;21.33;;;;;;;;;;5017972;28;93452;-70
2022/01/14 11:39:30;;;;;;;32.10;20.50;;;;;;;;;;5016382;28;94494;-70
2022/01/14 11:41:57;;;;;;;33.28;23.73;;;;;;;;;;5021483;28;91678;-70
2022/01/14 11:44:42;;;;;;;31.77;21.77;;;;;;;;;;5017661;28;93444;-69
2022/01/14 11:47:24;;;;;;;34.15;23.65;;;;;;;;;;5016612;28;92758;-72
2022/01/14 11:49:51;;;;;;;43.65;24.48;;;;;;;;;;5016345;28;94737;-71
2022/01/14 11:52:37;;;;;;;33.72;24.02;;;;;;;;;;5017636;28;92346;-72
2022/01/14 11:55:19;;;;;;;44.92;24.92;;;;;;;;;;5017587;28;92465;-71
2022/01/14 11:57:47;;;;;;;40.28;25.48;;;;;;;;;;5016946;28;93367;-72
2022/01/14 12:00:33;;;;;;;40.67;23.02;;;;;;;;;;5017544;28;93595;-72
2022/01/14 12:03:26;;;;;;;34.17;21.60;;;;;;;;;;5017627;28;92785;-72
2022/01/14 12:05:53;;;;;;;40.70;26.80;;;;;;;;;;5020515;28;93267;-71
2022/01/14 12:08:24;;;;;;;36.63;22.95;;;;;;;;;;5017734;28;91622;-72
2022/01/14 12:10:53;;;;;;;43.47;23.98;;;;;;;;;;5017468;28;92288;-71
2022/01/14 12:13:26;;;;;;;37.55;23.52;;;;;;;;;;5015808;28;94423;-70
2022/01/14 12:16:03;;;;;;;33.33;22.88;;;;;;;;;;5015701;28;94734;-70
2022/01/14 12:18:49;;;;;;;32.53;22.02;;;;;;;;;;5014545;28;94844;-71
2022/01/14 12:21:15;;;;;;;34.33;22.13;;;;;;;;;;4997132;28;93672;-72
2022/01/14 12:23:43;;;;;;;33.20;21.40;;;;;;;;;;4997202;28;92776;-71
2022/01/14 12:26:13;;;;;;;36.95;22.45;;;;;;;;;;5000184;28;93106;-70
2022/01/14 12:28:40;;;;;;;35.83;22.38;;;;;;;;;;4997124;28;92488;-70
2022/01/14 12:31:06;;;;;;;32.35;22.63;;;;;;;;;;4996463;28;93990;-71
2022/01/14 12:33:40;;;;;;;34.40;22.38;;;;;;;;;;4997363;28;92988;-71
2022/01/14 12:36:14;;;;;;;37.55;22.73;;;;;;;;;;4996868;28;92246;-71
2022/01/14 12:38:41;;;;;;;34.13;21.63;;;;;;;;;;4995618;28;94046;-71
2022/01/14 12:41:14;;;;;;;33.15;21.98;;;;;;;;;;4995205;28;96021;-71
2022/01/14 12:43:47;;;;;;;32.45;21.90;;;;;;;;;;4996338;28;92413;-71
2022/01/14 12:46:35;;;;;;;36.17;21.73;;;;;;;;;;4996786;28;93171;-71
2022/01/14 12:49:09;;;;;;;35.03;22.08;;;;;;;;;;4999846;28;93389;-71
2022/01/14 12:51:36;;;;;;;29.48;21.50;;;;;;;;;;4996707;28;93579;-71
2022/01/14 12:54:04;;;;;;;31.58;22.77;;;;;;;;;;4996218;28;93512;-73
2022/01/14 12:56:32;;;;;;;31.77;22.23;;;;;;;;;;4996287;28;92214;-74
2022/01/14 12:59:00;;;;;;;38.70;22.98;;;;;;;;;;4995825;28;93432;-72
2022/01/14 13:01:34;;;;;;;33.30;21.30;;;;;;;;;;4996468;28;93185;-73
2022/01/14 13:04:03;;;;;;;32.95;21.25;;;;;;;;;;4996617;28;92245;-73
2022/01/14 13:06:48;;;;;;;37.30;22.27;;;;;;;;;;4994778;28;94801;-72
2022/01/14 13:09:19;;;;;;;38.78;22.63;;;;;;;;;;4996355;28;93848;-73
2022/01/14 13:12:05;;;;;;;34.65;22.52;;;;;;;;;;4999605;28;92316;-73
2022/01/14 13:14:42;;;;;;;39.33;22.67;;;;;;;;;;4996276;28;93530;-74
2022/01/14 13:17:13;;;;;;;32.40;21.63;;;;;;;;;;4996147;28;92392;-73
2022/01/14 13:19:40;;;;;;;44.47;25.08;;;;;;;;;;4995913;28;92799;-73
2022/01/14 13:22:09;;;;;;;51.20;27.58;;;;;;;;;;4996114;28;93423;-73
2022/01/14 13:24:37;;;;;;;38.97;24.67;;;;;;;;;;4996790;28;91642;-72
2022/01/14 13:27:18;;;;;;;36.92;22.80;;;;;;;;;;4996303;28;92398;-72
2022/01/14 13:29:50;;;;;;;31.48;20.83;;;;;;;;;;4995964;28;93629;-72
2022/01/14 13:32:36;;;;;;;37.15;22.05;;;;;;;;;;4994376;28;95789;-70
2022/01/14 13:35:09;;;;;;;36.58;21.77;;;;;;;;;;4999027;28;96204;-71
2022/01/14 13:37:37;;;;;;;35.85;20.35;;;;;;;;;;4996236;28;92296;-71
2022/01/14 13:40:09;;;;;;;31.73;19.98;;;;;;;;;;4995664;28;93488;-70
2022/01/14 13:42:36;;;;;;;33.58;21.85;;;;;;;;;;4995995;28;93832;-71
2022/01/14 13:45:04;;;;;;;38.10;19.60;;;;;;;;;;4996260;28;92338;-71
2022/01/14 13:47:34;;;;;;;39.45;22.05;;;;;;;;;;4996245;28;93619;-71
2022/01/14 13:50:06;;;;;;;35.53;20.67;;;;;;;;;;4999024;28;92588;-71
2022/01/14 13:52:32;;;;;;;;;;;;;;;;;;4999870;28;92366;-72
2022/01/14 13:54:58;;;;;;;31.02;18.98;;;;;;;;;;4998184;28;122166;-71
2022/01/14 13:57:25;;;;;;;31.80;20.15;;;;;;;;;;5000907;28;95602;-72
2022/01/14 13:59:51;;;;;;;30.92;20.40;;;;;;;;;;4999134;28;96085;-69
2022/01/14 14:02:27;;;;;;;31.83;19.40;;;;;;;;;;4999370;28;93484;-71
2022/01/14 14:04:56;;;;;;;33.28;18.83;;;;;;;;;;4999246;28;92306;-72
2022/01/14 14:07:24;;;;;;;27.92;19.33;;;;;;;;;;4999239;28;94477;-71
2022/01/14 14:10:11;;;;;;;30.58;20.33;;;;;;;;;;4998312;28;93643;-71
2022/01/14 14:12:48;;;;;;;43.05;20.55;;;;;;;;;;4999045;28;94289;-71
2022/01/14 14:18:00;;;;;;;32.05;20.45;;;;;;;;;;4999243;28;93415;-71
2022/01/14 14:20:26;;;;;;;35.25;20.30;;;;;;;;;;5001578;28;93296;-71
2022/01/14 14:22:53;;;;;;;31.73;19.88;;;;;;;;;;4997423;28;96040;-71
2022/01/14 14:28:02;;;;;;;31.20;19.60;;;;;;;;;;4998855;28;92892;-71
2022/01/14 14:30:34;;;;;;;29.27;19.35;;;;;;;;;;4999044;28;92810;-70
2022/01/14 14:33:00;;;;;;;29.80;19.02;;;;;;;;;;4998897;28;92292;-71
2022/01/14 14:35:34;;;;;;;32.83;18.90;;;;;;;;;;4998665;28;92364;-70
2022/01/14 14:38:02;;;;;;;32.97;19.87;;;;;;;;;;4998740;28;93730;-70
2022/01/14 14:40:31;;;;;;;31.90;20.92;;;;;;;;;;5002116;28;91358;-71
2022/01/14 14:43:01;;;;;;;28.88;19.90;;;;;;;;;;4998828;28;93546;-70
2022/01/14 14:45:28;;;;;;;34.42;20.40;;;;;;;;;;4998625;28;92301;-71
2022/01/14 14:47:55;;;;;;;29.40;19.40;;;;;;;;;;4996377;28;94667;-70
2022/01/14 14:50:23;;;;;;;30.35;19.50;;;;;;;;;;4998743;28;93583;-71
2022/01/14 14:52:49;;;;;;;32.13;19.83;;;;;;;;;;4998559;28;94314;-73